createdAt,value
2022-10-18T00:00:00.817Z,7.47
2022-10-18T00:02:27.329Z,7.40
2022-10-18T00:04:53.697Z,7.15
2022-10-18T00:07:19.947Z,8.05
2022-10-18T00:09:46.192Z,8.30
2022-10-18T00:12:12.429Z,7.57
2022-10-18T00:14:38.665Z,6.90
2022-10-18T00:17:04.928Z,7.13
2022-10-18T00:19:31.187Z,7.20
2022-10-18T00:21:57.449Z,6.85
2022-10-18T00:24:23.729Z,6.72
2022-10-18T00:26:49.968Z,7.95
2022-10-18T00:29:16.588Z,7.07
2022-10-18T00:31:43.390Z,7.30
2022-10-18T00:34:13.915Z,7.63
2022-10-18T00:36:40.660Z,7.43
2022-10-18T00:39:07.678Z,8.13
2022-10-18T00:44:11.983Z,7.72
2022-10-18T00:46:39.449Z,7.75
2022-10-18T00:49:11.386Z,8.00
2022-10-18T00:51:44.876Z,7.45
2022-10-18T00:54:12.256Z,6.70
2022-10-18T00:56:38.528Z,7.72
2022-10-18T00:59:04.780Z,7.57
2022-10-18T01:01:31.090Z,7.50
2022-10-18T01:03:58.018Z,7.70
2022-10-18T01:06:24.988Z,7.07
2022-10-18T01:11:20.465Z,6.90
2022-10-18T01:13:46.679Z,6.85
2022-10-18T01:16:42.356Z,6.38
2022-10-18T01:19:14.338Z,8.50
2022-10-18T01:21:46.974Z,7.53
2022-10-18T01:24:13.177Z,6.80
2022-10-18T01:27:02.107Z,8.23
2022-10-18T01:29:37.540Z,7.68
2022-10-18T01:32:06.736Z,8.82
2022-10-18T01:34:35.128Z,7.97
2022-10-18T01:37:02.870Z,7.03
2022-10-18T01:39:30.926Z,6.13
2022-10-18T01:41:59.042Z,6.28
2022-10-18T01:44:26.392Z,6.43
2022-10-18T01:46:53.210Z,6.47
2022-10-18T01:49:19.448Z,6.75
2022-10-18T01:51:45.701Z,6.40
2022-10-18T01:54:13.210Z,6.57
2022-10-18T01:56:44.679Z,6.30
2022-10-18T01:59:29.727Z,6.55
2022-10-18T02:02:14.299Z,6.90
2022-10-18T02:04:51.112Z,6.15
2022-10-18T02:07:17.311Z,6.65
2022-10-18T02:09:50.303Z,6.32
2022-10-18T02:12:17.010Z,5.97
2022-10-18T02:14:43.753Z,5.95
2022-10-18T02:17:11.402Z,6.60
2022-10-18T02:19:40.302Z,6.55
2022-10-18T02:22:08.028Z,7.28
2022-10-18T02:24:52.933Z,6.20
2022-10-18T02:27:19.420Z,6.90
2022-10-18T02:29:45.817Z,6.75
2022-10-18T02:32:21.225Z,6.03
2022-10-18T02:34:56.905Z,6.30
2022-10-18T02:37:24.374Z,6.55
2022-10-18T02:39:51.364Z,6.10
2022-10-18T02:44:43.752Z,6.15
2022-10-18T02:47:11.394Z,7.55
2022-10-18T02:49:37.786Z,5.90
2022-10-18T02:52:04.172Z,6.25
2022-10-18T02:54:30.394Z,6.53
2022-10-18T02:56:56.630Z,6.97
2022-10-18T02:59:22.837Z,6.32
2022-10-18T03:01:49.131Z,6.10
2022-10-18T03:04:15.440Z,6.35
2022-10-18T03:06:41.767Z,5.53
2022-10-18T03:09:07.978Z,5.70
2022-10-18T03:11:34.278Z,5.32
2022-10-18T03:14:00.553Z,6.82
2022-10-18T03:16:27.240Z,6.45
2022-10-18T03:18:53.465Z,6.68
2022-10-18T03:21:19.694Z,5.50
2022-10-18T03:23:45.898Z,5.53
2022-10-18T03:26:12.118Z,5.75
2022-10-18T03:28:38.365Z,5.57
2022-10-18T03:31:05.118Z,6.30
2022-10-18T03:33:31.972Z,5.57
2022-10-18T03:35:58.238Z,6.05
2022-10-18T03:38:24.471Z,5.45
2022-10-18T03:40:50.949Z,6.07
2022-10-18T03:43:17.183Z,5.55
2022-10-18T03:45:43.419Z,7.00
2022-10-18T03:48:09.665Z,5.90
2022-10-18T03:50:35.866Z,5.90
2022-10-18T03:53:02.110Z,5.97
2022-10-18T03:55:28.334Z,6.03
2022-10-18T03:57:54.562Z,4.90
2022-10-18T04:00:20.902Z,6.60
2022-10-18T04:02:49.680Z,5.68
2022-10-18T04:05:18.328Z,6.05
2022-10-18T04:07:44.562Z,5.70
2022-10-18T04:10:10.994Z,5.82
2022-10-18T04:12:37.293Z,5.35
2022-10-18T04:15:03.697Z,6.18
2022-10-18T04:17:30.123Z,5.85
2022-10-18T04:19:56.698Z,7.10
2022-10-18T04:22:22.942Z,6.45
2022-10-18T04:24:49.209Z,7.28
2022-10-18T04:27:16.453Z,7.20
2022-10-18T04:29:42.666Z,6.65
2022-10-18T04:32:08.951Z,6.50
2022-10-18T04:34:35.236Z,6.75
2022-10-18T04:37:01.541Z,6.05
2022-10-18T04:39:27.788Z,6.45
2022-10-18T04:41:54.016Z,6.13
2022-10-18T04:44:20.237Z,6.80
2022-10-18T04:46:46.496Z,7.30
2022-10-18T04:49:12.801Z,6.50
2022-10-18T04:51:39.203Z,6.13
2022-10-18T04:54:05.635Z,6.47
2022-10-18T04:56:32.179Z,7.10
2022-10-18T04:58:58.668Z,6.85
2022-10-18T05:01:24.948Z,6.95
2022-10-18T05:03:51.924Z,6.60
2022-10-18T05:06:18.119Z,7.20
2022-10-18T05:08:44.350Z,7.25
2022-10-18T05:13:41.743Z,6.40
2022-10-18T05:16:07.973Z,6.65
2022-10-18T05:18:34.210Z,6.82
2022-10-18T05:21:00.438Z,6.70
2022-10-18T05:23:26.751Z,6.82
2022-10-18T05:25:53.605Z,7.80
2022-10-18T05:31:06.802Z,6.88
2022-10-18T05:33:33.073Z,7.10
2022-10-18T05:35:59.372Z,8.43
2022-10-18T05:38:25.782Z,8.20
2022-10-18T05:40:52.234Z,7.00
2022-10-18T05:43:18.589Z,6.88
2022-10-18T05:45:48.826Z,8.15
2022-10-18T05:48:15.080Z,7.22
2022-10-18T05:50:41.337Z,6.95
2022-10-18T05:53:18.355Z,6.68
2022-10-18T05:55:53.820Z,7.32
2022-10-18T05:58:20.101Z,6.78
2022-10-18T06:00:46.351Z,7.15
2022-10-18T06:03:12.705Z,6.85
2022-10-18T06:08:10.398Z,7.57
2022-10-18T06:10:38.718Z,9.52
2022-10-18T06:13:04.955Z,8.23
2022-10-18T06:15:31.694Z,8.75
2022-10-18T06:17:58.052Z,9.00
2022-10-18T06:20:24.495Z,7.93
2022-10-18T06:22:53.776Z,8.25
2022-10-18T06:25:19.991Z,6.93
2022-10-18T06:27:46.307Z,8.25
2022-10-18T06:30:12.727Z,8.93
2022-10-18T06:32:38.940Z,7.50
2022-10-18T06:35:05.491Z,7.05
2022-10-18T06:37:32.130Z,7.85
2022-10-18T06:39:58.536Z,6.60
2022-10-18T06:42:24.758Z,7.15
2022-10-18T06:44:50.992Z,7.43
2022-10-18T06:47:17.211Z,7.70
2022-10-18T06:49:43.452Z,6.65
2022-10-18T06:52:09.732Z,7.03
2022-10-18T06:54:36.025Z,6.28
2022-10-18T06:57:03.088Z,6.97
2022-10-18T06:59:31.305Z,6.15
2022-10-18T07:01:58.062Z,6.18
2022-10-18T07:04:24.454Z,6.10
2022-10-18T07:06:50.661Z,5.93
2022-10-18T07:09:16.919Z,5.55
2022-10-18T07:11:43.151Z,6.28
2022-10-18T07:14:12.557Z,5.70
2022-10-18T07:16:41.855Z,6.07
2022-10-18T07:19:08.214Z,6.30
2022-10-18T07:21:34.428Z,7.35
2022-10-18T07:24:00.695Z,6.03
2022-10-18T07:26:32.275Z,10.52
2022-10-18T07:29:04.442Z,23.58
2022-10-18T07:31:30.768Z,8.55
2022-10-18T07:33:57.031Z,6.32
2022-10-18T07:36:24.392Z,5.90
2022-10-18T07:38:51.880Z,4.78
2022-10-18T07:41:18.433Z,5.00
2022-10-18T07:43:45.934Z,4.90
2022-10-18T07:46:12.753Z,5.63
2022-10-18T07:48:39.165Z,4.70
2022-10-18T07:51:05.490Z,4.93
2022-10-18T07:53:32.123Z,5.35
2022-10-18T07:55:59.151Z,4.82
2022-10-18T08:00:51.517Z,5.32
2022-10-18T08:03:17.731Z,6.47
2022-10-18T08:05:43.984Z,5.20
2022-10-18T08:08:10.322Z,5.38
2022-10-18T08:10:36.656Z,5.07
2022-10-18T08:13:02.880Z,5.90
2022-10-18T08:15:29.101Z,4.72
2022-10-18T08:17:55.282Z,5.07
2022-10-18T08:20:30.285Z,5.43
2022-10-18T08:23:00.133Z,5.93
2022-10-18T08:25:27.197Z,5.10
2022-10-18T08:27:53.489Z,4.68
2022-10-18T08:30:19.711Z,4.53
2022-10-18T08:32:45.902Z,4.45
2022-10-18T08:35:12.097Z,5.03
2022-10-18T08:37:38.392Z,4.85
2022-10-18T08:40:04.876Z,4.75
2022-10-18T08:42:31.300Z,5.03
2022-10-18T08:44:57.814Z,4.47
2022-10-18T08:47:31.183Z,4.68
2022-10-18T08:50:20.932Z,3.88
2022-10-18T08:52:58.432Z,4.40
2022-10-18T08:57:51.447Z,4.03
2022-10-18T09:00:22.615Z,3.35
2022-10-18T09:03:04.573Z,4.22
2022-10-18T09:05:46.173Z,4.07
2022-10-18T09:08:25.327Z,5.13
2022-10-18T09:10:54.406Z,4.35
2022-10-18T09:13:36.170Z,3.78
2022-10-18T09:16:03.709Z,4.60
2022-10-18T09:18:41.668Z,4.32
2022-10-18T09:21:22.989Z,4.20
2022-10-18T09:24:05.709Z,4.82
2022-10-18T09:26:38.742Z,5.00
2022-10-18T09:29:17.286Z,4.00
2022-10-18T09:31:43.588Z,3.78
2022-10-18T09:34:18.998Z,4.65
2022-10-18T09:36:45.247Z,7.22
2022-10-18T09:39:13.286Z,4.82
2022-10-18T09:41:45.376Z,3.90
2022-10-18T09:44:31.853Z,4.40
2022-10-18T09:47:14.599Z,4.32
2022-10-18T09:49:45.484Z,4.35
2022-10-18T09:52:25.124Z,4.63
2022-10-18T09:54:55.257Z,4.22
2022-10-18T09:57:31.352Z,4.57
2022-10-18T09:59:58.800Z,4.97
2022-10-18T10:02:25.146Z,4.18
2022-10-18T10:04:54.022Z,4.82
2022-10-18T10:07:21.421Z,4.80
2022-10-18T10:09:49.002Z,4.82
2022-10-18T10:12:32.279Z,4.82
2022-10-18T10:15:17.848Z,4.75
2022-10-18T10:17:44.798Z,4.53
2022-10-18T10:22:38.718Z,4.30
2022-10-18T10:25:05.476Z,4.38
2022-10-18T10:27:34.814Z,4.82
2022-10-18T10:30:06.707Z,5.55
2022-10-18T10:32:44.733Z,4.65
2022-10-18T10:35:41.274Z,4.95
2022-10-18T10:38:22.083Z,4.47
2022-10-18T10:40:51.366Z,4.18
2022-10-18T10:43:37.141Z,3.55
2022-10-18T10:46:11.852Z,3.90
2022-10-18T10:48:45.531Z,3.90
2022-10-18T10:51:14.858Z,3.55
2022-10-18T10:53:50.594Z,4.40
2022-10-18T10:56:20.813Z,3.35
2022-10-18T10:58:47.137Z,2.55
2022-10-18T11:01:21.099Z,2.20
2022-10-18T11:03:48.614Z,1.70
2022-10-18T11:06:33.251Z,1.70
2022-10-18T11:09:01.433Z,1.55
2022-10-18T11:11:31.485Z,1.80
2022-10-18T11:14:24.856Z,1.63
2022-10-18T11:17:15.448Z,1.48
2022-10-18T11:20:02.441Z,2.20
2022-10-18T11:22:32.415Z,2.20
2022-10-18T11:24:58.895Z,2.05
2022-10-18T11:29:55.560Z,2.63
2022-10-18T11:32:29.744Z,2.83
2022-10-18T11:35:08.432Z,3.00
2022-10-18T11:37:42.823Z,3.60
2022-10-18T11:40:29.456Z,3.47
2022-10-18T11:43:14.398Z,3.05
2022-10-18T11:45:40.644Z,3.60
2022-10-18T11:48:21.964Z,2.60
2022-10-18T11:50:52.025Z,2.35
2022-10-18T11:53:18.244Z,2.58
2022-10-18T11:58:29.280Z,2.63
2022-10-18T12:01:01.060Z,2.30
2022-10-18T12:03:34.685Z,3.00
2022-10-18T12:06:06.378Z,1.98
2022-10-18T12:08:41.002Z,2.10
2022-10-18T12:11:14.395Z,2.10
2022-10-18T12:13:46.304Z,1.95
2022-10-18T12:16:12.683Z,3.58
2022-10-18T12:18:46.918Z,4.07
2022-10-18T12:21:13.622Z,2.33
2022-10-18T12:23:51.300Z,2.63
2022-10-18T12:26:17.683Z,2.50
2022-10-18T12:28:50.030Z,2.45
2022-10-18T12:31:16.261Z,1.90
2022-10-18T12:33:44.970Z,2.28
2022-10-18T12:36:20.328Z,3.03
2022-10-18T12:38:54.566Z,2.42
2022-10-18T12:41:22.845Z,2.67
2022-10-18T12:44:12.077Z,2.72
2022-10-18T12:46:44.452Z,2.85
2022-10-18T12:49:11.607Z,2.72
2022-10-18T12:51:49.280Z,2.60
2022-10-18T12:54:16.989Z,2.63
2022-10-18T12:56:43.953Z,2.65
2022-10-18T12:59:16.138Z,2.70
2022-10-18T13:01:51.794Z,2.60
2022-10-18T13:04:26.935Z,2.72
2022-10-18T13:07:05.449Z,2.90
2022-10-18T13:09:37.459Z,2.60
2022-10-18T13:12:09.800Z,3.35
2022-10-18T13:15:05.956Z,2.92
2022-10-18T13:18:15.219Z,2.90
2022-10-18T13:20:47.771Z,3.50
2022-10-18T13:23:17.158Z,3.70
2022-10-18T13:26:01.843Z,3.30
2022-10-18T13:28:52.845Z,3.28
2022-10-18T13:31:22.096Z,3.00
2022-10-18T13:33:48.547Z,2.85
2022-10-18T13:36:22.643Z,3.20
2022-10-18T13:38:57.464Z,3.25
2022-10-18T13:43:57.769Z,2.85
2022-10-18T13:46:24.041Z,3.47
2022-10-18T13:48:50.277Z,3.65
2022-10-18T13:51:16.472Z,3.75
2022-10-18T13:53:47.754Z,3.10
2022-10-18T13:56:20.889Z,3.25
2022-10-18T13:59:14.549Z,3.55
2022-10-18T14:01:53.668Z,3.65
2022-10-18T14:04:29.134Z,3.20
2022-10-18T14:07:02.050Z,3.22
2022-10-18T14:09:43.741Z,3.13
2022-10-18T14:12:23.029Z,3.15
2022-10-18T14:14:55.094Z,3.30
2022-10-18T14:17:24.353Z,3.00
2022-10-18T14:20:00.005Z,3.10
2022-10-18T14:22:29.162Z,3.40
2022-10-18T14:24:56.210Z,3.20
2022-10-18T14:27:32.921Z,3.10
2022-10-18T14:30:08.413Z,3.15
2022-10-18T14:32:34.699Z,2.80
2022-10-18T14:35:30.478Z,3.83
2022-10-18T14:37:48.759Z,3.85
2022-10-18T14:40:35.003Z,3.13
2022-10-18T14:43:06.204Z,3.13
2022-10-18T14:45:32.546Z,3.28
2022-10-18T14:48:05.405Z,2.80
2022-10-18T14:50:31.731Z,3.20
2022-10-18T14:52:58.103Z,2.95
2022-10-18T14:55:25.514Z,3.47
2022-10-18T14:57:51.907Z,3.40
2022-10-18T15:02:53.923Z,2.70
2022-10-18T15:05:21.949Z,2.55
2022-10-18T15:07:48.824Z,2.30
2022-10-18T15:13:04.449Z,2.40
2022-10-18T15:15:32.577Z,2.20
2022-10-18T15:17:59.552Z,2.60
2022-10-18T15:20:30.834Z,2.25
2022-10-18T15:23:26.747Z,2.45
2022-10-18T15:25:59.472Z,2.47
2022-10-18T15:28:33.531Z,3.13
2022-10-18T15:31:01.742Z,2.10
2022-10-18T15:33:33.582Z,1.80
2022-10-18T15:36:10.457Z,2.03
2022-10-18T15:38:37.395Z,2.20
2022-10-18T15:41:23.909Z,2.40
2022-10-18T15:43:50.181Z,2.30
2022-10-18T15:46:30.929Z,2.30
2022-10-18T15:49:00.907Z,2.97
2022-10-18T15:51:59.386Z,2.42
2022-10-18T15:54:31.573Z,2.47
2022-10-18T15:56:58.012Z,2.55
2022-10-18T15:59:28.603Z,3.78
2022-10-18T16:01:55.023Z,2.45
2022-10-18T16:04:28.697Z,2.85
2022-10-18T16:06:55.950Z,2.15
2022-10-18T16:09:23.402Z,2.30
2022-10-18T16:11:56.425Z,2.17
2022-10-18T16:14:23.194Z,2.15
2022-10-18T16:16:51.530Z,2.00
2022-10-18T16:19:24.008Z,2.55
2022-10-18T16:21:51.415Z,2.60
2022-10-18T16:24:18.300Z,2.38
2022-10-18T16:26:44.614Z,3.08
2022-10-18T16:29:25.774Z,3.17
2022-10-18T16:31:53.660Z,3.10
2022-10-18T16:34:19.924Z,3.55
2022-10-18T16:36:46.292Z,5.72
2022-10-18T16:39:14.161Z,4.22
2022-10-18T16:41:40.371Z,3.53
2022-10-18T16:44:06.709Z,3.17
2022-10-18T16:46:33.771Z,5.18
2022-10-18T16:49:00.733Z,5.18
2022-10-18T16:53:56.133Z,3.10
2022-10-18T16:56:24.786Z,2.50
2022-10-18T16:58:51.059Z,2.05
2022-10-18T17:01:18.851Z,1.60
2022-10-18T17:03:45.468Z,1.33
2022-10-18T17:06:15.892Z,1.98
2022-10-18T17:08:42.227Z,1.73
2022-10-18T17:11:09.970Z,1.30
2022-10-18T17:13:36.212Z,1.35
2022-10-18T17:16:03.719Z,1.50
2022-10-18T17:18:30.661Z,1.20
2022-10-18T17:23:23.345Z,1.52
2022-10-18T17:26:04.849Z,0.98
2022-10-18T17:28:33.376Z,1.50
2022-10-18T17:30:59.646Z,1.00
2022-10-18T17:33:25.894Z,0.93
2022-10-18T17:35:52.121Z,1.10
2022-10-18T17:38:18.395Z,0.80
2022-10-18T17:40:44.634Z,1.02
2022-10-18T17:43:13.195Z,1.00
2022-10-18T17:45:47.712Z,0.77
2022-10-18T17:48:13.916Z,1.23
2022-10-18T17:50:40.732Z,1.38
2022-10-18T17:53:06.984Z,2.25
2022-10-18T17:55:36.136Z,1.90
2022-10-18T17:58:02.387Z,2.00
2022-10-18T18:00:28.973Z,1.60
2022-10-18T18:02:59.115Z,1.17
2022-10-18T18:05:25.568Z,8.73
2022-10-18T18:07:51.888Z,3.92
2022-10-18T18:10:18.130Z,8.95
2022-10-18T18:12:45.427Z,3.97
2022-10-18T18:15:12.025Z,8.77
2022-10-18T18:17:56.049Z,5.72
2022-10-18T18:20:24.270Z,3.88
2022-10-18T18:22:50.740Z,2.63
2022-10-18T18:25:17.077Z,15.30
2022-10-18T18:27:43.337Z,12.38
2022-10-18T18:30:09.734Z,8.07
2022-10-18T18:32:35.999Z,6.57
2022-10-18T18:35:02.307Z,9.25
2022-10-18T18:37:28.621Z,4.50
2022-10-18T18:39:55.020Z,5.50
2022-10-18T18:42:22.442Z,3.63
2022-10-18T18:44:49.859Z,5.45
2022-10-18T18:47:16.141Z,6.68
2022-10-18T18:49:42.526Z,3.38
2022-10-18T18:52:08.764Z,3.80
2022-10-18T18:54:35.004Z,5.50
2022-10-18T18:57:05.229Z,3.10
2022-10-18T18:59:31.549Z,4.80
2022-10-18T19:01:57.811Z,3.88
2022-10-18T19:04:24.048Z,4.45
2022-10-18T19:06:50.297Z,8.82
2022-10-18T19:09:22.119Z,10.65
2022-10-18T19:11:49.436Z,6.70
2022-10-18T19:14:15.824Z,3.10
2022-10-18T19:16:48.919Z,1.95
2022-10-18T19:19:19.677Z,1.65
2022-10-18T19:21:47.422Z,1.50
2022-10-18T19:24:13.781Z,2.05
2022-10-18T19:26:45.214Z,1.88
2022-10-18T19:29:12.962Z,1.70
2022-10-18T19:31:39.989Z,1.55
2022-10-18T19:34:07.723Z,1.90
2022-10-18T19:36:34.270Z,1.23
2022-10-18T19:39:00.753Z,1.30
2022-10-18T19:41:28.649Z,1.42
2022-10-18T19:43:55.797Z,1.25
2022-10-18T19:48:48.286Z,1.70
2022-10-18T19:51:19.392Z,2.67
2022-10-18T19:53:49.355Z,2.13
2022-10-18T19:56:20.469Z,1.42
2022-10-18T19:58:47.098Z,1.20
2022-10-18T20:01:13.883Z,1.67
2022-10-18T20:03:40.739Z,1.30
2022-10-18T20:06:07.101Z,1.40
2022-10-18T20:08:33.858Z,1.83
2022-10-18T20:11:01.160Z,1.80
2022-10-18T20:13:27.406Z,1.55
2022-10-18T20:15:53.732Z,1.73
2022-10-18T20:18:20.387Z,2.40
2022-10-18T20:20:49.795Z,2.83
2022-10-18T20:23:16.639Z,3.30
2022-10-18T20:25:43.417Z,3.90
2022-10-18T20:28:09.642Z,3.17
2022-10-18T20:30:35.864Z,2.53
2022-10-18T20:33:02.122Z,1.92
2022-10-18T20:35:28.393Z,2.55
2022-10-18T20:37:54.601Z,3.70
2022-10-18T20:40:20.861Z,2.60
2022-10-18T20:42:47.087Z,2.30
2022-10-18T20:45:13.339Z,2.08
2022-10-18T20:47:39.566Z,2.35
2022-10-18T20:50:05.920Z,2.50
2022-10-18T20:52:32.125Z,2.70
2022-10-18T20:54:58.326Z,2.65
2022-10-18T20:57:24.578Z,2.90
2022-10-18T20:59:50.864Z,2.97
2022-10-18T21:02:17.148Z,2.00
2022-10-18T21:04:43.412Z,2.10
2022-10-18T21:07:09.626Z,2.20
2022-10-18T21:09:35.891Z,2.20
2022-10-18T21:12:02.222Z,2.38
2022-10-18T21:14:28.592Z,2.35
2022-10-18T21:16:54.907Z,2.50
2022-10-18T21:19:25.647Z,2.60
2022-10-18T21:21:54.251Z,2.75
2022-10-18T21:24:21.254Z,2.80
2022-10-18T21:29:19.332Z,2.88
2022-10-18T21:31:48.055Z,3.40
2022-10-18T21:34:15.666Z,3.10
2022-10-18T21:36:42.659Z,3.75
2022-10-18T21:41:35.125Z,4.28
2022-10-18T21:44:04.501Z,3.63
2022-10-18T21:46:33.226Z,4.28
2022-10-18T21:48:59.596Z,4.40
2022-10-18T21:51:26.927Z,4.03
2022-10-18T21:53:54.090Z,4.20
2022-10-18T21:56:21.881Z,4.22
2022-10-18T21:58:48.139Z,5.35
2022-10-18T22:01:15.540Z,4.25
2022-10-18T22:03:42.222Z,5.15
2022-10-18T22:06:13.065Z,5.43
2022-10-18T22:08:39.722Z,8.27
2022-10-18T22:11:06.141Z,11.32
2022-10-18T22:13:32.410Z,11.68
2022-10-18T22:16:02.488Z,7.57
2022-10-18T22:18:28.888Z,5.15
2022-10-18T22:20:59.663Z,5.60
2022-10-18T22:23:31.200Z,4.95
2022-10-18T22:26:01.268Z,4.95
2022-10-18T22:28:27.587Z,4.68
2022-10-18T22:30:53.863Z,4.45
2022-10-18T22:33:20.172Z,4.82
2022-10-18T22:35:49.685Z,5.10
2022-10-18T22:38:16.079Z,6.00
2022-10-18T22:40:42.294Z,5.82
2022-10-18T22:43:08.503Z,5.57
2022-10-18T22:45:34.764Z,6.53
2022-10-18T22:48:00.988Z,6.18
2022-10-18T22:50:27.183Z,5.95
2022-10-18T22:52:54.618Z,5.68
2022-10-18T22:55:20.981Z,5.72
2022-10-18T22:57:47.270Z,5.70
2022-10-18T23:00:13.762Z,5.70
2022-10-18T23:02:39.977Z,5.50
2022-10-18T23:05:06.335Z,5.38
2022-10-18T23:07:32.534Z,6.88
2022-10-18T23:09:58.771Z,6.93
2022-10-18T23:12:25.061Z,6.57
2022-10-18T23:14:51.303Z,6.70
2022-10-18T23:17:17.542Z,6.97
2022-10-18T23:19:43.750Z,6.15
2022-10-18T23:22:09.979Z,6.43
2022-10-18T23:24:36.218Z,8.20
2022-10-18T23:27:02.444Z,7.50
2022-10-18T23:29:28.672Z,8.00
2022-10-18T23:31:54.874Z,8.23
2022-10-18T23:34:21.160Z,9.20
2022-10-18T23:36:47.402Z,10.18
2022-10-18T23:39:13.663Z,10.13
2022-10-18T23:41:39.860Z,11.20
2022-10-18T23:44:06.900Z,11.70
2022-10-18T23:46:33.098Z,10.48
2022-10-18T23:48:59.305Z,11.23
2022-10-18T23:51:25.503Z,10.10
2022-10-18T23:53:51.727Z,11.43
2022-10-18T23:56:18.143Z,11.18
2022-10-18T23:58:44.883Z,10.88
